»·PEaware :: N1127N KLAS-KLAX

N1127N :: KLAS-KLAX

FLIGHT INFORMATION

Flight Status: Arrived
Operator: Privately registered:
United States
More flights under this callsign
Pilot: Alexander M. (19327)
Aircraft: CESSNA 550 CITATION 2/S2/BRAVO
(C550)
More flights by this aircraft type
Origin: KLAS McCarran Intl
United States
Destination: KLAX Los Angeles Intl
United States
More flights between these airports :: More routes between these airports
Route: +BOACH8 RIKKI SHTNR ANJLL4
File this flight plan on PilotEdge
Remarks: Pilotedge I-09?? Rating...on stream! twitch.tv / allaboutflight
Altitude:
(Current/Filed)
32,000ft
Speed:
(Current/Filed)
275kts
Departed: 08-Nov-18 11:29 AM
Arrived: 08-Nov-18 12:28 PM
Distance/Time
Traveled:
250nm/0:59
Distance/Time
To Go:
Arrived

Flight Plot

Page will automatically refresh every two minutes.

Flight plan parsing failed; only flown route is shown


Map Options




Map Legend


Flown Route
Filed Route
Departure Airport
Arrival Airport
Navaid (VOR, NDB)
Fix

Horizontal Profiles

Position Reports

Time Latitude Longitude Heading Altitude Ground
Speed
08-Nov-18 11:08 36.083029 -115.129399 88 2119ft 0kts
08-Nov-18 11:09 36.083029 -115.129399 88 2119ft 0kts
08-Nov-18 11:10 36.083029 -115.129399 88 2119ft 0kts
08-Nov-18 11:11 36.083029 -115.129399 88 2119ft 0kts
08-Nov-18 11:12 36.083029 -115.129399 88 2119ft 0kts
08-Nov-18 11:13 36.083029 -115.129399 88 2119ft 0kts
08-Nov-18 11:14 36.083029 -115.129399 88 2119ft 0kts
08-Nov-18 11:15 36.083029 -115.129399 88 2119ft 0kts
08-Nov-18 11:16 36.083029 -115.129399 88 2119ft 0kts
08-Nov-18 11:17 36.083029 -115.129399 88 2119ft 0kts
08-Nov-18 11:18 36.083029 -115.129399 88 2119ft 0kts
08-Nov-18 11:19 36.083029 -115.129399 88 2119ft 0kts
08-Nov-18 11:20 36.083029 -115.129399 88 2119ft 0kts
08-Nov-18 11:21 36.083029 -115.129399 88 2119ft 0kts
08-Nov-18 11:22 36.083024 -115.129373 109 2119ft 2kts
08-Nov-18 11:23 36.080760 -115.130119 190 2119ft 16kts
08-Nov-18 11:24 36.078089 -115.132842 213 2119ft 16kts
08-Nov-18 11:25 36.077536 -115.137541 269 2119ft 16kts
08-Nov-18 11:26 36.077531 -115.143299 271 2119ft 18kts
08-Nov-18 11:27 36.077994 -115.150324 274 2119ft 18kts
08-Nov-18 11:28 36.078013 -115.157474 269 2119ft 21kts
08-Nov-18 11:29 36.077668 -115.163274 210 2119ft 12kts
08-Nov-18 11:30 36.073853 -115.165858 261 2119ft 16kts
08-Nov-18 11:31 36.074006 -115.166457 294 2119ft 4kts
08-Nov-18 11:32 36.093898 -115.154841 28 2830ft 136kts
08-Nov-18 11:33 36.116383 -115.179524 262 4622ft 157kts
08-Nov-18 11:34 36.110857 -115.232580 267 6520ft 155kts
08-Nov-18 11:35 36.094076 -115.295761 208 8495ft 265kts
08-Nov-18 11:36 36.017120 -115.332683 200 9962ft 307kts
08-Nov-18 11:37 35.954917 -115.362760 201 9969ft 201kts
08-Nov-18 11:38 35.902596 -115.383727 177 11849ft 215kts
08-Nov-18 11:39 35.840522 -115.358835 159 13801ft 281kts
08-Nov-18 11:40 35.762035 -115.327249 161 15811ft 308kts
08-Nov-18 11:41 35.679085 -115.296112 169 17813ft 316kts
08-Nov-18 11:42 35.596361 -115.297644 182 19792ft 278kts
08-Nov-18 11:43 35.522907 -115.300755 181 21794ft 258kts
08-Nov-18 11:44 35.458287 -115.335205 211 23792ft 259kts
08-Nov-18 11:45 35.397153 -115.380520 211 25805ft 257kts
08-Nov-18 11:46 35.334599 -115.426035 211 27806ft 268kts
08-Nov-18 11:47 35.270439 -115.472542 210 29802ft 270kts
08-Nov-18 11:48 35.207718 -115.517872 211 31785ft 257kts
08-Nov-18 11:49 35.140382 -115.566557 211 32007ft 311kts
08-Nov-18 11:50 35.073553 -115.643101 227 32003ft 348kts
08-Nov-18 11:51 35.015909 -115.716898 226 32000ft 366kts
08-Nov-18 11:52 34.945634 -115.806514 226 32015ft 377kts
08-Nov-18 11:53 34.874800 -115.896490 226 31510ft 364kts
08-Nov-18 11:54 34.820336 -115.965666 226 31034ft 352kts
08-Nov-18 11:55 34.753431 -116.050495 227 30421ft 344kts
08-Nov-18 11:56 34.687823 -116.134108 226 29795ft 340kts
08-Nov-18 11:57 34.622684 -116.216818 226 29181ft 339kts
08-Nov-18 11:58 34.557853 -116.299046 226 28595ft 338kts
08-Nov-18 11:59 34.492881 -116.381181 227 27996ft 337kts
08-Nov-18 12:00 34.428332 -116.462611 227 27414ft 338kts
08-Nov-18 12:01 34.382318 -116.560375 245 26825ft 336kts
08-Nov-18 12:02 34.342419 -116.657762 243 26242ft 336kts
08-Nov-18 12:03 34.326588 -116.696672 244 26009ft 336kts
08-Nov-18 12:04 34.287793 -116.793198 244 25427ft 336kts
08-Nov-18 12:05 34.246859 -116.894605 245 24641ft 336kts
08-Nov-18 12:06 34.208043 -116.995202 253 23636ft 326kts
08-Nov-18 12:07 34.181095 -117.094013 252 22818ft 316kts
08-Nov-18 12:08 34.154902 -117.190236 253 21794ft 301kts
08-Nov-18 12:09 34.133033 -117.269688 253 19889ft 224kts
08-Nov-18 12:10 34.115068 -117.334814 253 18032ft 201kts
08-Nov-18 12:11 34.098781 -117.396452 255 16173ft 195kts
08-Nov-18 12:12 34.083246 -117.458481 255 14270ft 192kts
08-Nov-18 12:13 34.070374 -117.519696 262 12385ft 188kts
08-Nov-18 12:14 34.054914 -117.568997 243 11952ft 140kts
08-Nov-18 12:15 34.030385 -117.627841 244 10674ft 243kts
08-Nov-18 12:16 34.006766 -117.687324 260 9950ft 193kts
08-Nov-18 12:17 34.000830 -117.744360 265 9275ft 171kts
08-Nov-18 12:18 33.995210 -117.802528 264 8393ft 177kts
08-Nov-18 12:19 33.989463 -117.861530 265 7498ft 179kts
08-Nov-18 12:20 33.983568 -117.921711 264 6497ft 182kts
08-Nov-18 12:21 33.977834 -117.980067 264 5541ft 174kts
08-Nov-18 12:22 33.972567 -118.032940 264 4951ft 140kts
08-Nov-18 12:23 33.968874 -118.070025 268 5054ft 132kts
08-Nov-18 12:24 33.964443 -118.115994 264 5518ft 147kts
08-Nov-18 12:25 33.958276 -118.167830 259 4859ft 163kts
08-Nov-18 12:26 33.952696 -118.211960 265 3909ft 120kts
08-Nov-18 12:27 33.949399 -118.254471 266 2891ft 134kts
08-Nov-18 12:28 33.945491 -118.295015 264 2013ft 118kts
08-Nov-18 12:29 33.942344 -118.333100 266 1157ft 111kts
08-Nov-18 12:30 33.938849 -118.369015 267 441ft 107kts
08-Nov-18 12:31 33.935934 -118.396959 263 110ft 27kts
08-Nov-18 12:32 33.934710 -118.402020 189 110ft 0kts
08-Nov-18 12:33 33.934579 -118.397921 82 110ft 23kts
08-Nov-18 12:34 33.934302 -118.394383 271 110ft 7kts
08-Nov-18 12:35 33.934230 -118.395191 262 110ft 0kts
08-Nov-18 12:36 33.934230 -118.395191 262 110ft 0kts
08-Nov-18 12:37 33.934230 -118.395191 262 110ft 0kts
08-Nov-18 12:38 33.934230 -118.395191 262 110ft 0kts
08-Nov-18 12:39 33.934230 -118.395191 262 110ft 0kts
08-Nov-18 12:40 33.934230 -118.395191 262 110ft 0kts
08-Nov-18 12:41 33.934230 -118.395191 262 110ft 0kts
08-Nov-18 12:42 34.432428 -119.835576 70 18ft 0kts
08-Nov-18 12:43 34.432428 -119.835576 70 18ft 0kts
08-Nov-18 12:44 34.432428 -119.835576 70 18ft 0kts
08-Nov-18 12:45 34.432428 -119.835576 70 18ft 0kts

Navigation Log

Ident Type
Flight plan parsing failed, navigation log unavailable